createdAt,value
2017-11-06T00:01:44.225Z,11.60
2017-11-06T00:04:12.363Z,12.30
2017-11-06T00:06:41.463Z,11.50
2017-11-06T00:09:09.632Z,11.88
2017-11-06T00:11:37.768Z,11.80
2017-11-06T00:14:05.893Z,11.70
2017-11-06T00:16:34.791Z,12.05
2017-11-06T00:19:03.684Z,12.00
2017-11-06T00:21:31.854Z,10.60
2017-11-06T00:23:59.984Z,11.77
2017-11-06T00:26:28.110Z,12.43
2017-11-06T00:28:56.238Z,12.65
2017-11-06T00:31:24.361Z,11.70
2017-11-06T00:33:52.502Z,12.53
2017-11-06T00:36:21.395Z,12.47
2017-11-06T00:38:50.284Z,11.85
2017-11-06T00:41:19.180Z,13.10
2017-11-06T00:43:48.074Z,12.40
2017-11-06T00:46:16.968Z,13.57
2017-11-06T00:48:45.111Z,12.03
2017-11-06T00:51:13.217Z,11.32
2017-11-06T00:53:41.362Z,11.48
2017-11-06T00:56:10.280Z,13.02
2017-11-06T00:58:39.183Z,13.62
2017-11-06T01:01:07.299Z,13.50
2017-11-06T01:03:35.435Z,13.57
2017-11-06T01:06:03.581Z,12.60
2017-11-06T01:08:31.699Z,13.40
2017-11-06T01:10:59.843Z,12.35
2017-11-06T01:13:27.963Z,13.62
2017-11-06T01:15:56.102Z,11.63
2017-11-06T01:18:24.280Z,14.63
2017-11-06T01:20:52.412Z,13.40
2017-11-06T01:23:20.577Z,13.00
2017-11-06T01:25:49.472Z,12.45
2017-11-06T01:28:18.371Z,12.82
2017-11-06T01:30:46.500Z,12.48
2017-11-06T01:33:14.660Z,12.97
2017-11-06T01:35:42.809Z,12.50
2017-11-06T01:38:11.690Z,14.60
2017-11-06T01:40:39.818Z,12.70
2017-11-06T01:43:08.024Z,12.55
2017-11-06T01:45:36.954Z,12.25
2017-11-06T01:48:05.873Z,14.05
2017-11-06T01:50:33.990Z,13.20
2017-11-06T01:53:02.122Z,13.30
2017-11-06T01:55:31.029Z,13.73
2017-11-06T01:57:59.924Z,11.95
2017-11-06T02:00:28.062Z,12.97
2017-11-06T02:02:56.194Z,12.57
2017-11-06T02:05:24.320Z,14.25
2017-11-06T02:07:53.242Z,14.05
2017-11-06T02:10:21.364Z,14.10
2017-11-06T02:12:49.505Z,13.93
2017-11-06T02:15:20.526Z,14.85
2017-11-06T02:17:48.668Z,14.67
2017-11-06T02:20:17.554Z,13.70
2017-11-06T02:22:46.458Z,14.45
2017-11-06T02:25:15.354Z,14.32
2017-11-06T02:27:43.490Z,16.10
2017-11-06T02:30:11.627Z,13.45
2017-11-06T02:32:39.759Z,13.77
2017-11-06T02:35:08.638Z,14.65
2017-11-06T02:37:37.537Z,14.67
2017-11-06T02:40:06.423Z,14.20
2017-11-06T02:42:35.323Z,15.25
2017-11-06T02:45:04.240Z,14.32
2017-11-06T02:47:32.370Z,14.77
2017-11-06T02:50:00.511Z,13.02
2017-11-06T02:52:28.643Z,15.67
2017-11-06T02:54:57.553Z,13.60
2017-11-06T02:57:25.662Z,13.73
2017-11-06T02:59:53.782Z,13.52
2017-11-06T03:02:21.922Z,14.70
2017-11-06T03:04:50.049Z,14.25
2017-11-06T03:07:18.204Z,15.43
2017-11-06T03:09:46.319Z,14.85
2017-11-06T03:12:14.466Z,14.70
2017-11-06T03:14:42.602Z,14.77
2017-11-06T03:17:11.483Z,14.75
2017-11-06T03:19:40.440Z,14.73
2017-11-06T03:22:08.560Z,14.30
2017-11-06T03:24:36.684Z,13.30
2017-11-06T03:27:04.817Z,13.90
2017-11-06T03:29:32.940Z,13.52
2017-11-06T03:32:01.090Z,13.70
2017-11-06T03:34:29.235Z,14.20
2017-11-06T03:36:57.354Z,13.18
2017-11-06T03:39:25.496Z,12.82
2017-11-06T03:41:53.640Z,13.40
2017-11-06T03:44:21.792Z,13.20
2017-11-06T03:46:50.659Z,14.38
2017-11-06T03:49:18.795Z,13.70
2017-11-06T03:51:46.940Z,14.40
2017-11-06T03:54:15.094Z,14.70
2017-11-06T03:56:44.006Z,14.50
2017-11-06T03:59:12.123Z,14.43
2017-11-06T04:01:40.269Z,15.00
2017-11-06T04:04:08.387Z,13.97
2017-11-06T04:06:36.520Z,15.00
2017-11-06T04:09:04.654Z,14.52
2017-11-06T04:11:33.544Z,15.10
2017-11-06T04:14:02.430Z,17.23
2017-11-06T04:16:31.352Z,16.77
2017-11-06T04:18:59.475Z,16.53
2017-11-06T04:21:27.648Z,16.17
2017-11-06T04:23:55.769Z,16.00
2017-11-06T04:26:23.896Z,16.90
2017-11-06T04:28:52.021Z,17.02
2017-11-06T04:31:20.144Z,17.67
2017-11-06T04:33:51.791Z,18.60
2017-11-06T04:36:19.904Z,18.67
2017-11-06T04:38:48.040Z,18.77
2017-11-06T04:41:16.167Z,18.48
2017-11-06T04:43:44.294Z,18.62
2017-11-06T04:46:13.327Z,18.52
2017-11-06T04:48:41.446Z,17.53
2017-11-06T04:51:09.576Z,18.50
2017-11-06T04:53:37.707Z,18.52
2017-11-06T04:56:06.731Z,18.45
2017-11-06T04:58:34.845Z,18.87
2017-11-06T05:01:02.958Z,18.87
2017-11-06T05:03:31.096Z,14.60
2017-11-06T05:05:59.215Z,11.40
2017-11-06T05:08:27.354Z,10.25
2017-11-06T05:10:56.258Z,10.20
2017-11-06T05:13:24.378Z,11.55
2017-11-06T05:15:53.277Z,11.88
2017-11-06T05:18:21.397Z,11.90
2017-11-06T05:20:50.315Z,9.60
2017-11-06T05:23:18.428Z,10.30
2017-11-06T05:25:46.544Z,9.23
2017-11-06T05:28:14.678Z,10.30
2017-11-06T05:30:43.573Z,8.93
2017-11-06T05:33:12.477Z,9.63
2017-11-06T05:35:41.364Z,8.80
2017-11-06T05:38:10.252Z,8.85
2017-11-06T05:40:39.155Z,9.88
2017-11-06T05:43:07.288Z,10.13
2017-11-06T05:45:35.485Z,10.30
2017-11-06T05:48:04.387Z,11.00
2017-11-06T05:50:32.514Z,10.15
2017-11-06T05:53:00.682Z,10.68
2017-11-06T05:55:28.801Z,11.73
2017-11-06T05:57:56.946Z,12.52
2017-11-06T06:00:25.069Z,16.97
2017-11-06T06:02:53.194Z,17.37
2017-11-06T06:05:22.097Z,17.35
2017-11-06T06:07:50.989Z,19.10
2017-11-06T06:10:19.904Z,17.87
2017-11-06T06:12:48.021Z,19.08
2017-11-06T06:15:16.150Z,21.35
2017-11-06T06:17:44.275Z,21.87
2017-11-06T06:20:12.417Z,21.15
2017-11-06T06:22:40.555Z,23.65
2017-11-06T06:25:08.681Z,22.15
2017-11-06T06:27:36.803Z,22.85
2017-11-06T06:30:04.936Z,20.95
2017-11-06T06:32:33.068Z,22.27
2017-11-06T06:35:01.212Z,21.48
2017-11-06T06:37:30.108Z,22.10
2017-11-06T06:39:58.230Z,22.27
2017-11-06T06:42:26.373Z,24.58
2017-11-06T06:44:54.496Z,22.58
2017-11-06T06:47:23.415Z,23.87
2017-11-06T06:49:51.571Z,22.25
2017-11-06T06:52:19.671Z,22.43
2017-11-06T06:54:47.816Z,22.75
2017-11-06T06:57:15.932Z,21.83
2017-11-06T06:59:44.074Z,23.23
2017-11-06T07:02:12.212Z,25.40
2017-11-06T07:04:40.333Z,23.80
2017-11-06T07:07:08.483Z,23.23
2017-11-06T07:09:36.598Z,23.25
2017-11-06T07:12:04.745Z,23.77
2017-11-06T07:14:32.892Z,23.17
2017-11-06T07:17:01.013Z,25.67
2017-11-06T07:19:29.164Z,25.58
2017-11-06T07:21:57.271Z,32.20
2017-11-06T07:24:25.408Z,23.30
2017-11-06T07:26:53.527Z,22.02
2017-11-06T07:29:21.685Z,22.92
2017-11-06T07:31:49.806Z,23.12
2017-11-06T07:34:18.689Z,28.00
2017-11-06T07:36:47.576Z,28.80
2017-11-06T07:39:15.710Z,30.55
2017-11-06T07:41:43.847Z,25.85
2017-11-06T07:44:12.007Z,39.95
2017-11-06T07:46:40.879Z,44.65
2017-11-06T07:49:09.762Z,25.87
2017-11-06T07:51:38.650Z,24.00
2017-11-06T07:54:06.787Z,25.48
2017-11-06T07:56:34.903Z,22.73
2017-11-06T07:59:03.788Z,24.87
2017-11-06T08:01:32.714Z,23.65
2017-11-06T08:04:00.826Z,23.63
2017-11-06T08:06:28.978Z,24.77
2017-11-06T08:08:57.102Z,24.75
2017-11-06T08:11:25.235Z,25.58
2017-11-06T08:13:53.369Z,26.65
2017-11-06T08:16:21.484Z,24.85
2017-11-06T08:18:49.599Z,24.27
2017-11-06T08:21:17.746Z,25.20
2017-11-06T08:23:46.638Z,23.95
2017-11-06T08:26:15.550Z,24.30
2017-11-06T08:28:43.675Z,23.75
2017-11-06T08:31:11.806Z,24.17
2017-11-06T08:33:39.936Z,28.30
2017-11-06T08:36:08.826Z,21.43
2017-11-06T08:38:36.974Z,20.10
2017-11-06T08:41:05.115Z,23.38
2017-11-06T08:43:33.239Z,24.75
2017-11-06T08:46:01.389Z,23.38
2017-11-06T08:48:29.498Z,21.70
2017-11-06T08:50:58.405Z,21.00
2017-11-06T08:53:26.560Z,22.60
2017-11-06T08:55:55.451Z,21.73
2017-11-06T08:58:23.769Z,21.95
2017-11-06T09:00:51.888Z,20.92
2017-11-06T09:03:20.041Z,22.27
2017-11-06T09:05:48.181Z,21.80
2017-11-06T09:08:16.293Z,21.20
2017-11-06T09:10:44.439Z,21.55
2017-11-06T09:13:12.569Z,21.90
2017-11-06T09:15:41.457Z,21.12
2017-11-06T09:18:09.603Z,22.77
2017-11-06T09:20:37.731Z,22.57
2017-11-06T09:23:05.874Z,20.85
2017-11-06T09:25:34.761Z,20.80
2017-11-06T09:28:03.671Z,22.25
2017-11-06T09:30:31.803Z,21.05
2017-11-06T09:32:59.950Z,22.07
2017-11-06T09:35:28.070Z,21.60
2017-11-06T09:37:56.238Z,20.80
2017-11-06T09:40:25.405Z,22.48
2017-11-06T09:42:53.518Z,22.90
2017-11-06T09:45:21.648Z,23.02
2017-11-06T09:47:49.775Z,22.60
2017-11-06T09:50:17.903Z,21.10
2017-11-06T09:52:46.045Z,21.95
2017-11-06T09:55:14.205Z,21.90
2017-11-06T09:57:42.307Z,22.25
2017-11-06T10:00:10.453Z,20.45
2017-11-06T10:02:38.584Z,22.47
2017-11-06T10:05:07.489Z,22.17
2017-11-06T10:07:35.605Z,20.40
2017-11-06T10:10:03.719Z,22.42
2017-11-06T10:12:32.641Z,20.58
2017-11-06T10:15:00.763Z,22.33
2017-11-06T10:17:28.915Z,22.17
2017-11-06T10:19:57.027Z,22.65
2017-11-06T10:22:25.915Z,22.73
2017-11-06T10:24:54.937Z,20.95
2017-11-06T10:27:23.030Z,22.10
2017-11-06T10:29:51.228Z,22.37
2017-11-06T10:32:19.348Z,21.58
2017-11-06T10:34:47.461Z,21.65
2017-11-06T10:37:15.607Z,21.27
2017-11-06T10:39:44.663Z,21.25
2017-11-06T10:42:13.559Z,20.48
2017-11-06T10:44:41.673Z,21.52
2017-11-06T10:47:09.787Z,21.37
2017-11-06T10:49:38.693Z,21.80
2017-11-06T10:52:06.838Z,20.92
2017-11-06T10:54:35.032Z,19.85
2017-11-06T10:57:03.927Z,19.80
2017-11-06T10:59:33.800Z,20.20
2017-11-06T11:02:01.939Z,20.80
2017-11-06T11:04:30.059Z,19.73
2017-11-06T11:06:58.190Z,20.30
2017-11-06T11:09:26.327Z,19.70
2017-11-06T11:11:55.200Z,19.43
2017-11-06T11:14:24.109Z,20.02
2017-11-06T11:16:52.274Z,18.45
2017-11-06T11:19:21.182Z,20.45
2017-11-06T11:21:50.164Z,19.43
2017-11-06T11:24:18.300Z,21.00
2017-11-06T11:26:46.425Z,19.10
2017-11-06T11:29:14.575Z,19.90
2017-11-06T11:31:43.484Z,18.95
2017-11-06T11:34:11.763Z,18.40
2017-11-06T11:36:39.915Z,19.07
2017-11-06T11:39:08.820Z,20.00
2017-11-06T11:41:36.974Z,19.03
2017-11-06T11:44:05.864Z,19.35
2017-11-06T11:46:34.010Z,19.17
2017-11-06T11:49:02.125Z,18.45
2017-11-06T11:51:30.280Z,17.50
2017-11-06T11:53:59.172Z,18.35
2017-11-06T11:56:28.085Z,18.23
2017-11-06T11:58:56.207Z,17.70
2017-11-06T12:01:24.332Z,16.63
2017-11-06T12:03:52.460Z,16.77
2017-11-06T12:06:20.619Z,16.10
2017-11-06T12:08:48.841Z,15.80
2017-11-06T12:11:16.960Z,14.03
2017-11-06T12:13:45.085Z,15.43
2017-11-06T12:16:13.224Z,15.20
2017-11-06T12:18:41.337Z,15.05
2017-11-06T12:21:09.489Z,16.02
2017-11-06T12:23:38.371Z,16.23
2017-11-06T12:26:07.268Z,16.03
2017-11-06T12:28:36.157Z,15.65
2017-11-06T12:31:04.297Z,15.77
2017-11-06T12:33:32.443Z,16.67
2017-11-06T12:36:00.588Z,14.40
2017-11-06T12:38:29.471Z,14.73
2017-11-06T12:40:57.605Z,12.98
2017-11-06T12:43:25.713Z,12.07
2017-11-06T12:45:53.916Z,13.13
2017-11-06T12:48:22.028Z,12.85
2017-11-06T12:50:50.928Z,12.80
2017-11-06T12:53:19.850Z,13.63
2017-11-06T12:55:47.978Z,14.43
2017-11-06T12:58:16.120Z,14.20
2017-11-06T13:00:44.650Z,15.67
2017-11-06T13:03:29.982Z,12.43
2017-11-06T13:09:03.056Z,12.82
2017-11-06T13:11:50.928Z,12.60
2017-11-06T13:14:41.956Z,11.68
2017-11-06T13:17:21.489Z,9.27
2017-11-06T13:19:51.457Z,10.55
2017-11-06T13:22:19.581Z,11.48
2017-11-06T13:24:47.713Z,10.60
2017-11-06T13:27:15.842Z,10.85
2017-11-06T13:29:44.747Z,13.20
2017-11-06T13:32:12.906Z,12.20
2017-11-06T13:34:41.805Z,11.77
2017-11-06T13:37:10.710Z,11.27
2017-11-06T13:39:38.851Z,12.32
2017-11-06T13:42:07.740Z,11.30
2017-11-06T13:44:36.645Z,12.15
2017-11-06T13:47:05.538Z,11.35
2017-11-06T13:49:34.441Z,10.60
2017-11-06T13:52:02.572Z,10.80
2017-11-06T13:54:30.697Z,10.50
2017-11-06T13:56:58.850Z,10.63
2017-11-06T13:59:27.739Z,10.27
2017-11-06T14:01:55.859Z,9.10
2017-11-06T14:04:23.991Z,11.38
2017-11-06T14:06:52.120Z,11.23
2017-11-06T14:09:20.265Z,10.60
2017-11-06T14:11:48.393Z,10.20
2017-11-06T14:14:17.280Z,9.65
2017-11-06T14:16:46.169Z,8.52
2017-11-06T14:19:15.065Z,9.32
2017-11-06T14:21:43.958Z,9.33
2017-11-06T14:24:12.081Z,9.30
2017-11-06T14:26:40.233Z,9.63
2017-11-06T14:29:08.355Z,9.43
2017-11-06T14:31:37.231Z,8.65
2017-11-06T14:34:05.388Z,9.48
2017-11-06T14:36:33.508Z,10.10
2017-11-06T14:39:02.375Z,9.30
2017-11-06T14:41:31.305Z,10.13
2017-11-06T14:43:59.427Z,10.00
2017-11-06T14:46:27.561Z,9.48
2017-11-06T14:48:55.661Z,9.50
2017-11-06T14:51:25.286Z,8.30
2017-11-06T14:53:53.503Z,7.30
2017-11-06T14:56:21.614Z,9.27
2017-11-06T14:58:49.865Z,9.02
2017-11-06T15:01:17.965Z,8.65
2017-11-06T15:03:46.106Z,9.13
2017-11-06T15:06:14.331Z,11.00
2017-11-06T15:08:43.221Z,8.68
2017-11-06T15:11:12.113Z,8.20
2017-11-06T15:13:41.011Z,9.60
2017-11-06T15:16:09.908Z,9.23
2017-11-06T15:18:38.797Z,8.65
2017-11-06T15:21:06.919Z,9.17
2017-11-06T15:23:35.100Z,8.65
2017-11-06T15:26:03.227Z,8.77
2017-11-06T15:28:31.349Z,9.52
2017-11-06T15:30:59.504Z,9.90
2017-11-06T15:33:27.615Z,9.15
2017-11-06T15:35:56.550Z,9.40
2017-11-06T15:38:24.662Z,10.15
2017-11-06T15:40:52.788Z,9.18
2017-11-06T15:43:20.923Z,11.10
2017-11-06T15:45:49.815Z,9.82
2017-11-06T15:48:18.718Z,10.05
2017-11-06T15:50:46.825Z,9.80
2017-11-06T15:53:14.954Z,11.10
2017-11-06T15:55:43.855Z,12.60
2017-11-06T15:58:11.990Z,11.15
2017-11-06T16:00:40.134Z,10.20
2017-11-06T16:03:08.257Z,9.85
2017-11-06T16:05:37.136Z,9.98
2017-11-06T16:08:06.086Z,11.30
2017-11-06T16:10:34.217Z,10.20
2017-11-06T16:13:03.117Z,15.07
2017-11-06T16:15:31.245Z,13.10
2017-11-06T16:17:59.381Z,15.75
2017-11-06T16:20:27.511Z,10.43
2017-11-06T16:22:56.394Z,18.20
2017-11-06T16:25:25.299Z,12.13
2017-11-06T16:27:54.198Z,13.07
2017-11-06T16:30:22.339Z,11.77
2017-11-06T16:32:51.073Z,11.30
2017-11-06T16:35:19.944Z,11.95
2017-11-06T16:37:48.073Z,13.62
2017-11-06T16:40:16.203Z,12.43
2017-11-06T16:42:44.340Z,11.10
2017-11-06T16:45:13.291Z,12.00
2017-11-06T16:47:41.414Z,12.73
2017-11-06T16:50:10.343Z,12.27
2017-11-06T16:52:38.460Z,11.57
2017-11-06T16:55:06.583Z,10.73
2017-11-06T16:57:34.727Z,11.93
2017-11-06T17:00:04.556Z,11.52
2017-11-06T17:02:32.685Z,11.70
2017-11-06T17:05:00.815Z,11.68
2017-11-06T17:07:28.950Z,11.87
2017-11-06T17:09:57.853Z,12.50
2017-11-06T17:12:26.038Z,12.30
2017-11-06T17:14:55.817Z,10.98
2017-11-06T17:17:25.365Z,12.37
2017-11-06T17:19:53.507Z,13.35
2017-11-06T17:22:22.398Z,12.53
2017-11-06T17:24:50.564Z,12.27
2017-11-06T17:27:18.757Z,14.75
2017-11-06T17:29:46.877Z,14.82
2017-11-06T17:32:15.069Z,12.50
2017-11-06T17:34:43.988Z,13.38
2017-11-06T17:37:12.111Z,13.27
2017-11-06T17:39:40.244Z,13.27
2017-11-06T17:42:08.404Z,13.07
2017-11-06T17:44:36.510Z,13.82
2017-11-06T17:47:04.658Z,13.77
2017-11-06T17:49:32.802Z,13.40
2017-11-06T17:52:00.932Z,14.97
2017-11-06T17:54:29.052Z,14.70
2017-11-06T17:56:57.996Z,14.60
2017-11-06T17:59:26.118Z,14.05
2017-11-06T18:01:54.991Z,14.33
2017-11-06T18:04:23.917Z,14.75
2017-11-06T18:06:52.027Z,13.62
2017-11-06T18:09:20.158Z,13.52
2017-11-06T18:11:48.308Z,12.10
2017-11-06T18:14:17.211Z,13.98
2017-11-06T18:16:45.349Z,13.60
2017-11-06T18:19:13.505Z,14.95
2017-11-06T18:21:41.647Z,15.45
2017-11-06T18:24:09.769Z,14.63
2017-11-06T18:26:37.902Z,14.73
2017-11-06T18:29:06.026Z,15.43
2017-11-06T18:31:34.922Z,14.93
2017-11-06T18:34:03.098Z,15.88
2017-11-06T18:36:31.989Z,14.33
2017-11-06T18:39:00.166Z,14.65
2017-11-06T18:41:29.050Z,14.17
2017-11-06T18:43:57.949Z,15.25
2017-11-06T18:46:26.131Z,15.35
2017-11-06T18:48:55.046Z,15.95
2017-11-06T18:51:23.190Z,15.60
2017-11-06T18:53:51.330Z,17.52
2017-11-06T18:56:20.473Z,14.60
2017-11-06T18:58:48.609Z,15.70
2017-11-06T19:01:17.524Z,15.10
2017-11-06T19:03:45.667Z,15.48
2017-11-06T19:06:14.962Z,16.20
2017-11-06T19:08:43.094Z,16.35
2017-11-06T19:11:11.222Z,16.60
2017-11-06T19:13:39.811Z,15.88
2017-11-06T19:16:07.982Z,17.33
2017-11-06T19:18:36.848Z,17.60
2017-11-06T19:21:05.775Z,16.63
2017-11-06T19:23:33.923Z,16.85
2017-11-06T19:26:02.850Z,16.50
2017-11-06T19:28:31.081Z,18.98
2017-11-06T19:31:00.045Z,16.87
2017-11-06T19:33:28.240Z,18.10
2017-11-06T19:35:56.526Z,17.57
2017-11-06T19:38:26.195Z,18.10
2017-11-06T19:40:54.420Z,16.40
2017-11-06T19:43:23.321Z,17.20
2017-11-06T19:45:51.473Z,18.58
2017-11-06T19:48:19.635Z,17.83
2017-11-06T19:50:47.760Z,17.53
2017-11-06T19:53:15.933Z,17.90
2017-11-06T19:55:44.077Z,16.50
2017-11-06T19:58:12.259Z,17.08
2017-11-06T20:00:40.400Z,18.47
2017-11-06T20:03:09.319Z,16.37
2017-11-06T20:05:37.469Z,15.63
2017-11-06T20:08:06.429Z,17.10
2017-11-06T20:10:34.566Z,15.83
2017-11-06T20:13:02.712Z,17.52
2017-11-06T20:15:31.737Z,18.02
2017-11-06T20:17:59.894Z,17.73
2017-11-06T20:20:28.052Z,18.70
2017-11-06T20:22:56.954Z,16.33
2017-11-06T20:25:25.134Z,17.20
2017-11-06T20:27:53.362Z,17.80
2017-11-06T20:30:21.530Z,16.92
2017-11-06T20:32:55.174Z,17.50
2017-11-06T20:35:23.332Z,16.80
2017-11-06T20:37:53.073Z,17.37
2017-11-06T20:40:21.303Z,17.33
2017-11-06T20:42:49.492Z,17.20
2017-11-06T20:45:18.417Z,17.90
2017-11-06T20:47:46.585Z,17.80
2017-11-06T20:50:15.647Z,18.58
2017-11-06T20:52:44.583Z,19.08
2017-11-06T20:55:12.719Z,17.45
2017-11-06T20:57:40.997Z,17.12
2017-11-06T21:00:09.189Z,19.35
2017-11-06T21:02:37.363Z,17.48
2017-11-06T21:05:05.494Z,17.20
2017-11-06T21:07:33.652Z,17.10
2017-11-06T21:10:01.827Z,18.62
2017-11-06T21:12:29.989Z,17.20
2017-11-06T21:14:58.124Z,17.65
2017-11-06T21:17:26.377Z,19.58
2017-11-06T21:19:55.284Z,18.35
2017-11-06T21:22:23.520Z,19.73
2017-11-06T21:24:51.691Z,20.35
2017-11-06T21:27:19.855Z,18.27
2017-11-06T21:29:53.757Z,15.25
2017-11-06T21:32:21.951Z,14.90
2017-11-06T21:34:50.125Z,13.20
2017-11-06T21:37:18.270Z,9.57
2017-11-06T21:39:46.486Z,8.90
2017-11-06T21:42:14.642Z,7.97
2017-11-06T21:44:43.943Z,8.63
2017-11-06T21:47:13.581Z,8.20
2017-11-06T21:49:41.700Z,7.50
2017-11-06T21:52:09.852Z,8.20
2017-11-06T21:54:37.985Z,7.95
2017-11-06T21:57:07.044Z,8.40
2017-11-06T21:59:35.220Z,8.48
2017-11-06T22:02:03.373Z,8.85
2017-11-06T22:04:31.615Z,9.43
2017-11-06T22:06:59.796Z,8.63
2017-11-06T22:09:27.912Z,8.57
2017-11-06T22:11:56.112Z,8.03
2017-11-06T22:14:25.002Z,8.68
2017-11-06T22:16:54.072Z,8.50
2017-11-06T22:19:23.735Z,9.35
2017-11-06T22:21:51.871Z,8.38
2017-11-06T22:24:20.045Z,9.88
2017-11-06T22:26:48.942Z,8.87
2017-11-06T22:29:17.103Z,9.38
2017-11-06T22:31:45.997Z,8.30
2017-11-06T22:34:14.898Z,9.40
2017-11-06T22:36:43.801Z,10.07
2017-11-06T22:39:11.952Z,9.15
2017-11-06T22:41:40.847Z,8.50
2017-11-06T22:44:09.767Z,9.63
2017-11-06T22:46:50.526Z,9.70
2017-11-06T22:49:18.704Z,9.50
2017-11-06T22:51:46.801Z,11.33
2017-11-06T22:54:14.926Z,10.05
2017-11-06T22:56:43.079Z,10.45
2017-11-06T22:59:12.059Z,10.10
2017-11-06T23:01:40.243Z,10.23
2017-11-06T23:04:08.412Z,9.57
2017-11-06T23:06:36.576Z,9.63
2017-11-06T23:09:04.721Z,9.23
2017-11-06T23:11:32.857Z,10.23
2017-11-06T23:14:01.094Z,10.10
2017-11-06T23:16:29.220Z,10.55
2017-11-06T23:18:57.418Z,10.02
2017-11-06T23:21:25.555Z,9.67
2017-11-06T23:23:53.699Z,10.30
2017-11-06T23:26:22.620Z,10.57
2017-11-06T23:28:50.736Z,9.93
2017-11-06T23:31:18.842Z,9.75
2017-11-06T23:33:47.880Z,10.98
2017-11-06T23:36:16.110Z,10.07
2017-11-06T23:38:45.111Z,9.73
2017-11-06T23:41:14.026Z,9.93
2017-11-06T23:43:43.130Z,9.90
2017-11-06T23:46:12.047Z,10.45
2017-11-06T23:48:40.176Z,11.00
2017-11-06T23:51:08.272Z,9.90
2017-11-06T23:53:36.439Z,10.10
2017-11-06T23:56:04.590Z,11.53
2017-11-06T23:58:32.748Z,11.63
